Malaga, Washington
Current Conditions -  °F | °C
As of 6:55 PM on Friday 31 Oct 2014 (Local Time) from KEAT Reporting Station
Clear Clear  
Wind Chill: 51°   Ceiling: Unl
Heat Index: 51°   Visibility: 10mi
Dew Point: 46°   Wind: 5mph
Humidity: 83%   Direction: 330°NNW
Pressure: 29.77"   Gusts: NA
Location:  47.35°N, 120.2°W
Report Text: KEAT 010155Z AUTO 33004KT 10SM CLR 11/08 A2977 RMK AO2 SLP083 T01060078
Loading
Personal Weather Stations






























Interactive Weather Map
Tropical Storm Tracking
New forecast layout! Learn more

10-Day Weather Forecast

Advertisements
Track Severe Weather on mobile